sensor_id;sensor_type;location;lat;lon;timestamp;temperature;humidity
25923;DHT22;13725;51.170;4.442;2022-11-20T00:01:22;5.00;99.90
25923;DHT22;13725;51.170;4.442;2022-11-20T00:03:48;5.00;99.90
25923;DHT22;13725;51.170;4.442;2022-11-20T00:06:17;5.00;99.90
25923;DHT22;13725;51.170;4.442;2022-11-20T00:08:43;5.10;99.90
25923;DHT22;13725;51.170;4.442;2022-11-20T00:11:16;5.10;99.90
25923;DHT22;13725;51.170;4.442;2022-11-20T00:13:43;5.10;99.90
25923;DHT22;13725;51.170;4.442;2022-11-20T00:16:11;5.10;99.90
25923;DHT22;13725;51.170;4.442;2022-11-20T00:18:37;5.20;99.90
25923;DHT22;13725;51.170;4.442;2022-11-20T00:21:05;5.10;99.90
25923;DHT22;13725;51.170;4.442;2022-11-20T00:23:31;5.10;99.90
25923;DHT22;13725;51.170;4.442;2022-11-20T00:25:56;5.20;99.90
25923;DHT22;13725;51.170;4.442;2022-11-20T00:28:23;5.20;99.90
25923;DHT22;13725;51.170;4.442;2022-11-20T00:30:49;5.20;99.90
25923;DHT22;13725;51.170;4.442;2022-11-20T00:33:15;5.20;99.90
25923;DHT22;13725;51.170;4.442;2022-11-20T00:35:40;5.20;99.90
25923;DHT22;13725;51.170;4.442;2022-11-20T00:38:06;5.20;99.90
25923;DHT22;13725;51.170;4.442;2022-11-20T00:40:32;5.30;99.90
25923;DHT22;13725;51.170;4.442;2022-11-20T00:42:57;5.20;99.90
25923;DHT22;13725;51.170;4.442;2022-11-20T00:45:23;5.30;99.90
25923;DHT22;13725;51.170;4.442;2022-11-20T00:47:49;5.30;99.90
25923;DHT22;13725;51.170;4.442;2022-11-20T00:50:14;5.30;99.90
25923;DHT22;13725;51.170;4.442;2022-11-20T00:52:41;5.30;99.90
25923;DHT22;13725;51.170;4.442;2022-11-20T00:55:07;5.30;99.90
25923;DHT22;13725;51.170;4.442;2022-11-20T00:57:33;5.30;99.90
25923;DHT22;13725;51.170;4.442;2022-11-20T00:59:59;5.30;99.90
25923;DHT22;13725;51.170;4.442;2022-11-20T01:02:25;5.30;99.90
25923;DHT22;13725;51.170;4.442;2022-11-20T01:04:51;5.30;99.90
25923;DHT22;13725;51.170;4.442;2022-11-20T01:07:16;5.30;99.90
25923;DHT22;13725;51.170;4.442;2022-11-20T01:09:42;5.30;99.90
25923;DHT22;13725;51.170;4.442;2022-11-20T01:12:08;5.20;99.90
25923;DHT22;13725;51.170;4.442;2022-11-20T01:14:33;5.20;99.90
25923;DHT22;13725;51.170;4.442;2022-11-20T01:16:59;5.20;99.90
25923;DHT22;13725;51.170;4.442;2022-11-20T01:19:25;5.10;99.90
25923;DHT22;13725;51.170;4.442;2022-11-20T01:21:52;5.10;99.90
25923;DHT22;13725;51.170;4.442;2022-11-20T01:24:20;5.20;99.90
25923;DHT22;13725;51.170;4.442;2022-11-20T01:26:48;5.20;99.90
25923;DHT22;13725;51.170;4.442;2022-11-20T01:29:24;5.10;99.90
25923;DHT22;13725;51.170;4.442;2022-11-20T01:31:50;5.10;99.90
25923;DHT22;13725;51.170;4.442;2022-11-20T01:34:19;5.20;99.90
25923;DHT22;13725;51.170;4.442;2022-11-20T01:36:45;5.10;99.90
25923;DHT22;13725;51.170;4.442;2022-11-20T01:39:14;5.00;99.90
25923;DHT22;13725;51.170;4.442;2022-11-20T01:41:41;4.90;99.90
25923;DHT22;13725;51.170;4.442;2022-11-20T01:44:57;4.80;99.90
25923;DHT22;13725;51.170;4.442;2022-11-20T01:50:00;4.70;99.90
25923;DHT22;13725;51.170;4.442;2022-11-20T01:53:08;4.80;99.90
25923;DHT22;13725;51.170;4.442;2022-11-20T01:55:30;4.80;99.90
25923;DHT22;13725;51.170;4.442;2022-11-20T01:57:56;4.80;99.90
25923;DHT22;13725;51.170;4.442;2022-11-20T02:00:23;4.80;99.90
25923;DHT22;13725;51.170;4.442;2022-11-20T02:02:56;4.70;99.90
25923;DHT22;13725;51.170;4.442;2022-11-20T02:07:59;4.70;99.90
25923;DHT22;13725;51.170;4.442;2022-11-20T02:10:27;4.70;99.90
25923;DHT22;13725;51.170;4.442;2022-11-20T02:12:53;4.70;99.90
25923;DHT22;13725;51.170;4.442;2022-11-20T02:15:38;4.70;99.90
25923;DHT22;13725;51.170;4.442;2022-11-20T02:18:05;4.70;99.90
25923;DHT22;13725;51.170;4.442;2022-11-20T02:20:32;4.70;99.90
25923;DHT22;13725;51.170;4.442;2022-11-20T02:23:52;4.80;99.90
25923;DHT22;13725;51.170;4.442;2022-11-20T02:26:20;4.90;99.90
25923;DHT22;13725;51.170;4.442;2022-11-20T02:28:47;4.90;99.90
25923;DHT22;13725;51.170;4.442;2022-11-20T02:31:12;4.90;99.90
25923;DHT22;13725;51.170;4.442;2022-11-20T02:33:38;4.90;99.90
25923;DHT22;13725;51.170;4.442;2022-11-20T02:36:04;4.90;99.90
25923;DHT22;13725;51.170;4.442;2022-11-20T02:38:30;4.90;99.90
25923;DHT22;13725;51.170;4.442;2022-11-20T02:40:56;4.90;99.90
25923;DHT22;13725;51.170;4.442;2022-11-20T02:43:22;4.70;99.90
25923;DHT22;13725;51.170;4.442;2022-11-20T02:45:49;4.80;99.90
25923;DHT22;13725;51.170;4.442;2022-11-20T02:48:15;4.70;99.90
25923;DHT22;13725;51.170;4.442;2022-11-20T02:50:40;4.70;99.90
25923;DHT22;13725;51.170;4.442;2022-11-20T02:53:07;4.70;99.90
25923;DHT22;13725;51.170;4.442;2022-11-20T02:55:32;4.70;99.90
25923;DHT22;13725;51.170;4.442;2022-11-20T02:57:58;4.70;99.90
25923;DHT22;13725;51.170;4.442;2022-11-20T03:00:24;4.70;99.90
25923;DHT22;13725;51.170;4.442;2022-11-20T03:02:50;4.70;99.90
25923;DHT22;13725;51.170;4.442;2022-11-20T03:05:15;4.70;99.90
25923;DHT22;13725;51.170;4.442;2022-11-20T03:07:43;4.70;99.90
25923;DHT22;13725;51.170;4.442;2022-11-20T03:10:09;4.70;99.90
25923;DHT22;13725;51.170;4.442;2022-11-20T03:12:35;4.60;99.90
25923;DHT22;13725;51.170;4.442;2022-11-20T03:15:00;4.60;99.90
25923;DHT22;13725;51.170;4.442;2022-11-20T03:17:26;4.60;99.90
25923;DHT22;13725;51.170;4.442;2022-11-20T03:19:52;4.60;99.90
25923;DHT22;13725;51.170;4.442;2022-11-20T03:22:17;4.60;99.90
25923;DHT22;13725;51.170;4.442;2022-11-20T03:24:43;4.60;99.90
25923;DHT22;13725;51.170;4.442;2022-11-20T03:27:09;4.70;99.90
25923;DHT22;13725;51.170;4.442;2022-11-20T03:29:35;4.80;99.90
25923;DHT22;13725;51.170;4.442;2022-11-20T03:32:01;4.80;99.90
25923;DHT22;13725;51.170;4.442;2022-11-20T03:34:27;4.80;99.90
25923;DHT22;13725;51.170;4.442;2022-11-20T03:36:53;4.90;99.90
25923;DHT22;13725;51.170;4.442;2022-11-20T03:39:19;4.90;99.90
25923;DHT22;13725;51.170;4.442;2022-11-20T03:41:44;4.90;99.90
25923;DHT22;13725;51.170;4.442;2022-11-20T03:44:11;5.00;99.90
25923;DHT22;13725;51.170;4.442;2022-11-20T03:46:38;4.90;99.90
25923;DHT22;13725;51.170;4.442;2022-11-20T03:49:04;5.00;99.90
25923;DHT22;13725;51.170;4.442;2022-11-20T03:51:32;5.00;99.90
25923;DHT22;13725;51.170;4.442;2022-11-20T03:54:02;5.00;99.90
25923;DHT22;13725;51.170;4.442;2022-11-20T03:56:30;5.00;99.90
25923;DHT22;13725;51.170;4.442;2022-11-20T03:58:56;5.00;99.90
25923;DHT22;13725;51.170;4.442;2022-11-20T04:01:27;5.10;99.90
25923;DHT22;13725;51.170;4.442;2022-11-20T04:03:56;5.10;99.90
25923;DHT22;13725;51.170;4.442;2022-11-20T04:06:29;5.00;99.90
25923;DHT22;13725;51.170;4.442;2022-11-20T04:08:56;5.00;99.90
25923;DHT22;13725;51.170;4.442;2022-11-20T04:11:24;5.00;99.90
25923;DHT22;13725;51.170;4.442;2022-11-20T04:13:52;5.00;99.90
25923;DHT22;13725;51.170;4.442;2022-11-20T04:16:19;5.00;99.90
25923;DHT22;13725;51.170;4.442;2022-11-20T04:18:46;5.00;99.90
25923;DHT22;13725;51.170;4.442;2022-11-20T04:21:12;5.00;99.90
25923;DHT22;13725;51.170;4.442;2022-11-20T04:23:38;5.00;99.90
25923;DHT22;13725;51.170;4.442;2022-11-20T04:26:09;5.10;99.90
25923;DHT22;13725;51.170;4.442;2022-11-20T04:28:35;5.10;99.90
25923;DHT22;13725;51.170;4.442;2022-11-20T04:31:09;5.00;99.90
25923;DHT22;13725;51.170;4.442;2022-11-20T04:33:36;5.00;99.90
25923;DHT22;13725;51.170;4.442;2022-11-20T04:36:04;4.90;99.90
25923;DHT22;13725;51.170;4.442;2022-11-20T04:38:31;4.90;99.90
25923;DHT22;13725;51.170;4.442;2022-11-20T04:41:02;4.90;99.90
25923;DHT22;13725;51.170;4.442;2022-11-20T04:43:29;5.00;99.90
25923;DHT22;13725;51.170;4.442;2022-11-20T04:45:56;5.00;99.90
25923;DHT22;13725;51.170;4.442;2022-11-20T04:48:23;5.00;99.90
25923;DHT22;13725;51.170;4.442;2022-11-20T04:50:49;5.00;99.90
25923;DHT22;13725;51.170;4.442;2022-11-20T04:53:14;5.00;99.90
25923;DHT22;13725;51.170;4.442;2022-11-20T04:55:40;5.10;99.90
25923;DHT22;13725;51.170;4.442;2022-11-20T04:58:06;5.00;99.90
25923;DHT22;13725;51.170;4.442;2022-11-20T05:00:32;5.00;99.90
25923;DHT22;13725;51.170;4.442;2022-11-20T05:02:57;5.00;99.90
25923;DHT22;13725;51.170;4.442;2022-11-20T05:05:23;5.00;99.90
25923;DHT22;13725;51.170;4.442;2022-11-20T05:07:49;4.90;99.90
25923;DHT22;13725;51.170;4.442;2022-11-20T05:10:15;4.80;99.90
25923;DHT22;13725;51.170;4.442;2022-11-20T05:12:41;4.80;99.90
25923;DHT22;13725;51.170;4.442;2022-11-20T05:15:07;4.90;99.90
25923;DHT22;13725;51.170;4.442;2022-11-20T05:17:33;4.90;99.90
25923;DHT22;13725;51.170;4.442;2022-11-20T05:19:58;4.90;99.90
25923;DHT22;13725;51.170;4.442;2022-11-20T05:22:24;5.00;99.90
25923;DHT22;13725;51.170;4.442;2022-11-20T05:24:50;5.00;99.90
25923;DHT22;13725;51.170;4.442;2022-11-20T05:27:15;5.00;99.90
25923;DHT22;13725;51.170;4.442;2022-11-20T05:29:41;4.90;99.90
25923;DHT22;13725;51.170;4.442;2022-11-20T05:32:07;4.90;99.90
25923;DHT22;13725;51.170;4.442;2022-11-20T05:34:35;4.90;99.90
25923;DHT22;13725;51.170;4.442;2022-11-20T05:37:02;4.90;99.90
25923;DHT22;13725;51.170;4.442;2022-11-20T05:39:28;4.80;99.90
25923;DHT22;13725;51.170;4.442;2022-11-20T05:41:53;4.80;99.90
25923;DHT22;13725;51.170;4.442;2022-11-20T05:44:38;4.70;99.90
25923;DHT22;13725;51.170;4.442;2022-11-20T05:47:04;4.70;99.90
25923;DHT22;13725;51.170;4.442;2022-11-20T05:49:30;4.70;99.90
25923;DHT22;13725;51.170;4.442;2022-11-20T05:51:56;4.60;99.90
25923;DHT22;13725;51.170;4.442;2022-11-20T05:54:23;4.60;99.90
25923;DHT22;13725;51.170;4.442;2022-11-20T05:56:49;4.50;99.90
25923;DHT22;13725;51.170;4.442;2022-11-20T05:59:14;4.50;99.90
25923;DHT22;13725;51.170;4.442;2022-11-20T06:01:40;4.50;99.90
25923;DHT22;13725;51.170;4.442;2022-11-20T06:04:06;4.60;99.90
25923;DHT22;13725;51.170;4.442;2022-11-20T06:06:32;4.50;99.90
25923;DHT22;13725;51.170;4.442;2022-11-20T06:08:57;4.50;99.90
25923;DHT22;13725;51.170;4.442;2022-11-20T06:11:24;4.60;99.90
25923;DHT22;13725;51.170;4.442;2022-11-20T06:13:50;4.50;99.90
25923;DHT22;13725;51.170;4.442;2022-11-20T06:16:18;4.50;99.90
25923;DHT22;13725;51.170;4.442;2022-11-20T06:18:45;4.40;99.90
25923;DHT22;13725;51.170;4.442;2022-11-20T06:21:16;4.50;99.90
25923;DHT22;13725;51.170;4.442;2022-11-20T06:23:42;4.50;99.90
25923;DHT22;13725;51.170;4.442;2022-11-20T06:26:18;4.50;99.90
25923;DHT22;13725;51.170;4.442;2022-11-20T06:28:44;4.40;99.90
25923;DHT22;13725;51.170;4.442;2022-11-20T06:31:12;4.40;99.90
25923;DHT22;13725;51.170;4.442;2022-11-20T06:33:39;4.40;99.90
25923;DHT22;13725;51.170;4.442;2022-11-20T06:36:05;4.40;99.90
25923;DHT22;13725;51.170;4.442;2022-11-20T06:38:31;4.50;99.90
25923;DHT22;13725;51.170;4.442;2022-11-20T06:40:57;4.50;99.90
25923;DHT22;13725;51.170;4.442;2022-11-20T06:43:23;4.50;99.90
25923;DHT22;13725;51.170;4.442;2022-11-20T06:45:57;4.50;99.90
25923;DHT22;13725;51.170;4.442;2022-11-20T06:48:25;4.60;99.90
25923;DHT22;13725;51.170;4.442;2022-11-20T06:50:51;4.50;99.90
25923;DHT22;13725;51.170;4.442;2022-11-20T06:53:17;4.50;99.90
25923;DHT22;13725;51.170;4.442;2022-11-20T06:55:45;4.50;99.90
25923;DHT22;13725;51.170;4.442;2022-11-20T06:58:12;4.40;99.90
25923;DHT22;13725;51.170;4.442;2022-11-20T07:00:37;4.30;99.90
25923;DHT22;13725;51.170;4.442;2022-11-20T07:03:07;4.40;99.90
25923;DHT22;13725;51.170;4.442;2022-11-20T07:05:34;4.40;99.90
25923;DHT22;13725;51.170;4.442;2022-11-20T07:08:01;4.50;99.90
25923;DHT22;13725;51.170;4.442;2022-11-20T07:10:27;4.50;99.90
25923;DHT22;13725;51.170;4.442;2022-11-20T07:12:53;4.60;99.90
25923;DHT22;13725;51.170;4.442;2022-11-20T07:15:21;4.60;99.90
25923;DHT22;13725;51.170;4.442;2022-11-20T07:17:48;4.60;99.90
25923;DHT22;13725;51.170;4.442;2022-11-20T07:20:14;4.70;99.90
25923;DHT22;13725;51.170;4.442;2022-11-20T07:22:40;4.70;99.90
25923;DHT22;13725;51.170;4.442;2022-11-20T07:25:07;4.80;99.90
25923;DHT22;13725;51.170;4.442;2022-11-20T07:27:33;4.80;99.90
25923;DHT22;13725;51.170;4.442;2022-11-20T07:29:59;4.80;99.90
25923;DHT22;13725;51.170;4.442;2022-11-20T07:32:24;4.80;99.90
25923;DHT22;13725;51.170;4.442;2022-11-20T07:34:50;4.80;99.90
25923;DHT22;13725;51.170;4.442;2022-11-20T07:37:16;4.80;99.90
25923;DHT22;13725;51.170;4.442;2022-11-20T07:39:42;4.80;99.90
25923;DHT22;13725;51.170;4.442;2022-11-20T07:42:08;4.80;99.90
25923;DHT22;13725;51.170;4.442;2022-11-20T07:44:36;4.90;99.90
25923;DHT22;13725;51.170;4.442;2022-11-20T07:47:02;4.90;99.90
25923;DHT22;13725;51.170;4.442;2022-11-20T07:49:28;4.90;99.90
25923;DHT22;13725;51.170;4.442;2022-11-20T07:51:53;4.80;99.90
25923;DHT22;13725;51.170;4.442;2022-11-20T07:54:20;4.90;99.90
25923;DHT22;13725;51.170;4.442;2022-11-20T07:56:47;5.00;99.90
25923;DHT22;13725;51.170;4.442;2022-11-20T07:59:13;5.10;99.90
25923;DHT22;13725;51.170;4.442;2022-11-20T08:01:39;5.00;99.90
25923;DHT22;13725;51.170;4.442;2022-11-20T08:04:06;5.00;99.90
25923;DHT22;13725;51.170;4.442;2022-11-20T08:06:31;5.00;99.90
25923;DHT22;13725;51.170;4.442;2022-11-20T08:08:57;5.00;99.90
25923;DHT22;13725;51.170;4.442;2022-11-20T08:11:23;5.00;99.90
25923;DHT22;13725;51.170;4.442;2022-11-20T08:14:07;5.10;99.90
25923;DHT22;13725;51.170;4.442;2022-11-20T08:16:40;5.20;99.90
25923;DHT22;13725;51.170;4.442;2022-11-20T08:19:06;5.30;99.90
25923;DHT22;13725;51.170;4.442;2022-11-20T08:21:32;5.40;99.90
25923;DHT22;13725;51.170;4.442;2022-11-20T08:23:59;5.40;99.90
25923;DHT22;13725;51.170;4.442;2022-11-20T08:26:25;5.30;99.90
25923;DHT22;13725;51.170;4.442;2022-11-20T08:28:55;5.30;99.90
25923;DHT22;13725;51.170;4.442;2022-11-20T08:31:21;5.40;99.90
25923;DHT22;13725;51.170;4.442;2022-11-20T08:33:47;5.40;99.90
25923;DHT22;13725;51.170;4.442;2022-11-20T08:36:13;5.40;99.90
25923;DHT22;13725;51.170;4.442;2022-11-20T08:38:40;5.40;99.90
25923;DHT22;13725;51.170;4.442;2022-11-20T08:41:06;5.60;99.90
25923;DHT22;13725;51.170;4.442;2022-11-20T08:43:56;5.60;99.90
25923;DHT22;13725;51.170;4.442;2022-11-20T08:46:27;5.70;99.90
25923;DHT22;13725;51.170;4.442;2022-11-20T08:48:53;5.70;99.90
25923;DHT22;13725;51.170;4.442;2022-11-20T08:51:20;5.80;99.90
25923;DHT22;13725;51.170;4.442;2022-11-20T08:53:46;5.80;99.90
25923;DHT22;13725;51.170;4.442;2022-11-20T08:56:14;5.80;99.90
25923;DHT22;13725;51.170;4.442;2022-11-20T08:58:40;5.80;99.90
25923;DHT22;13725;51.170;4.442;2022-11-20T09:01:06;5.80;99.90
25923;DHT22;13725;51.170;4.442;2022-11-20T09:03:31;5.80;99.90
25923;DHT22;13725;51.170;4.442;2022-11-20T09:06:05;5.80;99.90
25923;DHT22;13725;51.170;4.442;2022-11-20T09:08:32;5.80;99.90
25923;DHT22;13725;51.170;4.442;2022-11-20T09:10:59;5.90;99.90
25923;DHT22;13725;51.170;4.442;2022-11-20T09:13:27;5.90;99.90
25923;DHT22;13725;51.170;4.442;2022-11-20T09:15:57;5.80;99.90
25923;DHT22;13725;51.170;4.442;2022-11-20T09:18:26;5.70;99.90
25923;DHT22;13725;51.170;4.442;2022-11-20T09:20:56;5.70;99.90
25923;DHT22;13725;51.170;4.442;2022-11-20T09:23:23;5.70;99.90
25923;DHT22;13725;51.170;4.442;2022-11-20T09:25:48;5.80;99.90
25923;DHT22;13725;51.170;4.442;2022-11-20T09:28:14;5.80;99.90
25923;DHT22;13725;51.170;4.442;2022-11-20T09:30:40;6.00;99.90
25923;DHT22;13725;51.170;4.442;2022-11-20T09:33:05;6.00;99.90
25923;DHT22;13725;51.170;4.442;2022-11-20T09:35:32;6.00;99.90
25923;DHT22;13725;51.170;4.442;2022-11-20T09:37:58;6.10;99.90
25923;DHT22;13725;51.170;4.442;2022-11-20T09:40:26;6.20;99.90
25923;DHT22;13725;51.170;4.442;2022-11-20T09:43:03;6.20;99.90
25923;DHT22;13725;51.170;4.442;2022-11-20T09:53:51;6.60;99.90
25923;DHT22;13725;51.170;4.442;2022-11-20T09:56:22;6.70;99.90
25923;DHT22;13725;51.170;4.442;2022-11-20T09:58:53;6.70;99.90
25923;DHT22;13725;51.170;4.442;2022-11-20T10:01:32;6.80;99.90
25923;DHT22;13725;51.170;4.442;2022-11-20T10:04:19;6.70;99.90
25923;DHT22;13725;51.170;4.442;2022-11-20T10:09:39;6.60;99.90
25923;DHT22;13725;51.170;4.442;2022-11-20T10:20:47;6.30;99.90
25923;DHT22;13725;51.170;4.442;2022-11-20T10:26:17;6.30;99.90
25923;DHT22;13725;51.170;4.442;2022-11-20T10:31:35;6.30;99.90
25923;DHT22;13725;51.170;4.442;2022-11-20T10:34:06;6.40;99.90
25923;DHT22;13725;51.170;4.442;2022-11-20T10:36:44;6.50;99.90
25923;DHT22;13725;51.170;4.442;2022-11-20T10:41:50;6.80;99.90
25923;DHT22;13725;51.170;4.442;2022-11-20T10:44:36;6.90;99.90
25923;DHT22;13725;51.170;4.442;2022-11-20T10:47:20;7.00;99.90
25923;DHT22;13725;51.170;4.442;2022-11-20T10:49:51;7.10;99.90
25923;DHT22;13725;51.170;4.442;2022-11-20T10:52:42;7.20;99.90
25923;DHT22;13725;51.170;4.442;2022-11-20T10:55:33;7.30;99.90
25923;DHT22;13725;51.170;4.442;2022-11-20T10:58:11;7.20;99.90
25923;DHT22;13725;51.170;4.442;2022-11-20T11:00:40;7.20;99.90
25923;DHT22;13725;51.170;4.442;2022-11-20T11:03:23;7.50;99.90
25923;DHT22;13725;51.170;4.442;2022-11-20T11:08:53;7.50;99.90
25923;DHT22;13725;51.170;4.442;2022-11-20T11:11:30;7.40;99.90
25923;DHT22;13725;51.170;4.442;2022-11-20T11:16:32;7.60;99.90
25923;DHT22;13725;51.170;4.442;2022-11-20T11:19:12;7.60;99.90
25923;DHT22;13725;51.170;4.442;2022-11-20T11:21:38;7.80;99.90
25923;DHT22;13725;51.170;4.442;2022-11-20T11:24:20;7.90;99.90
25923;DHT22;13725;51.170;4.442;2022-11-20T11:26:59;7.90;99.90
25923;DHT22;13725;51.170;4.442;2022-11-20T11:29:25;8.10;99.90
25923;DHT22;13725;51.170;4.442;2022-11-20T11:32:05;8.00;99.90
25923;DHT22;13725;51.170;4.442;2022-11-20T11:34:31;8.00;99.90
25923;DHT22;13725;51.170;4.442;2022-11-20T11:36:58;8.10;99.90
25923;DHT22;13725;51.170;4.442;2022-11-20T11:39:25;8.20;99.90
25923;DHT22;13725;51.170;4.442;2022-11-20T11:41:51;8.40;99.90
25923;DHT22;13725;51.170;4.442;2022-11-20T11:44:19;8.50;99.90
25923;DHT22;13725;51.170;4.442;2022-11-20T11:47:08;8.60;99.90
25923;DHT22;13725;51.170;4.442;2022-11-20T11:49:35;8.50;99.90
25923;DHT22;13725;51.170;4.442;2022-11-20T11:52:12;8.30;99.90
25923;DHT22;13725;51.170;4.442;2022-11-20T11:54:55;8.40;99.90
25923;DHT22;13725;51.170;4.442;2022-11-20T11:57:47;8.40;99.90
25923;DHT22;13725;51.170;4.442;2022-11-20T12:00:17;8.60;99.90
25923;DHT22;13725;51.170;4.442;2022-11-20T12:05:22;8.70;99.90
25923;DHT22;13725;51.170;4.442;2022-11-20T12:13:36;9.20;99.90
25923;DHT22;13725;51.170;4.442;2022-11-20T12:16:09;9.20;99.90
25923;DHT22;13725;51.170;4.442;2022-11-20T12:18:36;9.30;99.90
25923;DHT22;13725;51.170;4.442;2022-11-20T12:21:25;9.20;99.90
25923;DHT22;13725;51.170;4.442;2022-11-20T12:37:21;8.80;99.90
25923;DHT22;13725;51.170;4.442;2022-11-20T12:39:50;8.90;99.90
25923;DHT22;13725;51.170;4.442;2022-11-20T12:42:38;8.80;99.90
25923;DHT22;13725;51.170;4.442;2022-11-20T12:45:41;8.90;99.90
25923;DHT22;13725;51.170;4.442;2022-11-20T13:07:09;8.40;99.90
25923;DHT22;13725;51.170;4.442;2022-11-20T13:09:43;8.40;99.90
25923;DHT22;13725;51.170;4.442;2022-11-20T13:15:04;8.30;99.90
25923;DHT22;13725;51.170;4.442;2022-11-20T13:17:52;8.30;99.90
25923;DHT22;13725;51.170;4.442;2022-11-20T13:20:20;8.30;99.90
25923;DHT22;13725;51.170;4.442;2022-11-20T13:27:52;8.20;99.90
25923;DHT22;13725;51.170;4.442;2022-11-20T13:30:20;8.10;99.90
25923;DHT22;13725;51.170;4.442;2022-11-20T13:32:52;8.00;99.90
25923;DHT22;13725;51.170;4.442;2022-11-20T13:35:27;8.00;99.90
25923;DHT22;13725;51.170;4.442;2022-11-20T13:38:10;8.00;99.90
25923;DHT22;13725;51.170;4.442;2022-11-20T13:40:39;8.10;99.90
25923;DHT22;13725;51.170;4.442;2022-11-20T13:43:39;8.10;99.90
25923;DHT22;13725;51.170;4.442;2022-11-20T13:46:08;8.00;99.90
25923;DHT22;13725;51.170;4.442;2022-11-20T13:48:39;8.00;99.90
25923;DHT22;13725;51.170;4.442;2022-11-20T13:51:42;8.00;99.90
25923;DHT22;13725;51.170;4.442;2022-11-20T14:02:20;7.90;99.90
25923;DHT22;13725;51.170;4.442;2022-11-20T14:04:53;7.90;99.90
25923;DHT22;13725;51.170;4.442;2022-11-20T14:07:23;7.90;99.90
25923;DHT22;13725;51.170;4.442;2022-11-20T14:09:55;7.90;99.90
25923;DHT22;13725;51.170;4.442;2022-11-20T14:12:29;7.90;99.90
25923;DHT22;13725;51.170;4.442;2022-11-20T14:14:55;7.90;99.90
25923;DHT22;13725;51.170;4.442;2022-11-20T14:17:33;8.00;99.90
25923;DHT22;13725;51.170;4.442;2022-11-20T14:20:11;8.00;99.90
25923;DHT22;13725;51.170;4.442;2022-11-20T14:22:37;8.00;99.90
25923;DHT22;13725;51.170;4.442;2022-11-20T14:27:51;8.10;99.90
25923;DHT22;13725;51.170;4.442;2022-11-20T14:30:21;8.20;99.90
25923;DHT22;13725;51.170;4.442;2022-11-20T14:32:48;8.30;99.90
25923;DHT22;13725;51.170;4.442;2022-11-20T14:35:30;8.30;99.90
25923;DHT22;13725;51.170;4.442;2022-11-20T14:37:57;8.20;99.90
25923;DHT22;13725;51.170;4.442;2022-11-20T14:42:56;8.30;99.90
25923;DHT22;13725;51.170;4.442;2022-11-20T14:45:23;8.40;99.90
25923;DHT22;13725;51.170;4.442;2022-11-20T14:47:50;8.30;99.90
25923;DHT22;13725;51.170;4.442;2022-11-20T14:50:24;8.30;99.90
25923;DHT22;13725;51.170;4.442;2022-11-20T14:52:54;8.30;99.90
25923;DHT22;13725;51.170;4.442;2022-11-20T14:55:32;8.30;99.90
25923;DHT22;13725;51.170;4.442;2022-11-20T14:58:04;8.40;99.90
25923;DHT22;13725;51.170;4.442;2022-11-20T15:00:32;8.40;99.90
25923;DHT22;13725;51.170;4.442;2022-11-20T15:02:58;8.40;99.90
25923;DHT22;13725;51.170;4.442;2022-11-20T15:05:43;8.50;99.90
25923;DHT22;13725;51.170;4.442;2022-11-20T15:08:11;8.60;99.90
25923;DHT22;13725;51.170;4.442;2022-11-20T15:10:39;8.50;99.90
25923;DHT22;13725;51.170;4.442;2022-11-20T15:13:29;8.50;99.90
25923;DHT22;13725;51.170;4.442;2022-11-20T15:15:57;8.50;99.90
25923;DHT22;13725;51.170;4.442;2022-11-20T15:18:28;8.60;99.90
25923;DHT22;13725;51.170;4.442;2022-11-20T15:20:56;8.50;99.90
25923;DHT22;13725;51.170;4.442;2022-11-20T15:23:23;8.60;99.90
25923;DHT22;13725;51.170;4.442;2022-11-20T15:25:49;8.60;99.90
25923;DHT22;13725;51.170;4.442;2022-11-20T15:30:46;8.70;99.90
25923;DHT22;13725;51.170;4.442;2022-11-20T15:33:13;8.70;99.90
25923;DHT22;13725;51.170;4.442;2022-11-20T15:35:39;8.70;99.90
25923;DHT22;13725;51.170;4.442;2022-11-20T15:38:04;8.70;99.90
25923;DHT22;13725;51.170;4.442;2022-11-20T15:40:30;8.70;99.90
25923;DHT22;13725;51.170;4.442;2022-11-20T15:42:56;8.70;99.90
25923;DHT22;13725;51.170;4.442;2022-11-20T15:45:31;8.80;99.90
25923;DHT22;13725;51.170;4.442;2022-11-20T15:47:59;8.70;99.90
25923;DHT22;13725;51.170;4.442;2022-11-20T15:50:38;8.70;99.90
25923;DHT22;13725;51.170;4.442;2022-11-20T15:53:04;8.60;99.90
25923;DHT22;13725;51.170;4.442;2022-11-20T15:55:30;8.60;99.90
25923;DHT22;13725;51.170;4.442;2022-11-20T15:57:57;8.50;99.90
25923;DHT22;13725;51.170;4.442;2022-11-20T16:00:22;8.50;99.90
25923;DHT22;13725;51.170;4.442;2022-11-20T16:02:48;8.50;99.90
25923;DHT22;13725;51.170;4.442;2022-11-20T16:05:15;8.50;99.90
25923;DHT22;13725;51.170;4.442;2022-11-20T16:07:41;8.40;99.90
25923;DHT22;13725;51.170;4.442;2022-11-20T16:10:07;8.40;99.90
25923;DHT22;13725;51.170;4.442;2022-11-20T16:12:33;8.50;99.90
25923;DHT22;13725;51.170;4.442;2022-11-20T16:15:18;8.40;99.90
25923;DHT22;13725;51.170;4.442;2022-11-20T16:18:02;8.40;99.90
25923;DHT22;13725;51.170;4.442;2022-11-20T16:20:28;8.40;99.90
25923;DHT22;13725;51.170;4.442;2022-11-20T16:22:54;8.40;99.90
25923;DHT22;13725;51.170;4.442;2022-11-20T16:25:20;8.40;99.90
25923;DHT22;13725;51.170;4.442;2022-11-20T16:27:46;8.30;99.90
25923;DHT22;13725;51.170;4.442;2022-11-20T16:30:12;8.30;99.90
25923;DHT22;13725;51.170;4.442;2022-11-20T16:32:38;8.30;99.90
25923;DHT22;13725;51.170;4.442;2022-11-20T16:35:04;8.20;99.90
25923;DHT22;13725;51.170;4.442;2022-11-20T16:37:30;8.20;99.90
25923;DHT22;13725;51.170;4.442;2022-11-20T16:39:56;8.10;99.90
25923;DHT22;13725;51.170;4.442;2022-11-20T16:42:22;8.10;99.90
25923;DHT22;13725;51.170;4.442;2022-11-20T16:44:47;8.10;99.90
25923;DHT22;13725;51.170;4.442;2022-11-20T16:47:13;8.10;99.90
25923;DHT22;13725;51.170;4.442;2022-11-20T16:49:39;8.00;99.90
25923;DHT22;13725;51.170;4.442;2022-11-20T16:52:04;8.00;99.90
25923;DHT22;13725;51.170;4.442;2022-11-20T16:54:30;8.00;99.90
25923;DHT22;13725;51.170;4.442;2022-11-20T16:56:56;8.00;99.90
25923;DHT22;13725;51.170;4.442;2022-11-20T16:59:21;7.90;99.90
25923;DHT22;13725;51.170;4.442;2022-11-20T17:01:47;7.90;99.90
25923;DHT22;13725;51.170;4.442;2022-11-20T17:04:13;7.90;99.90
25923;DHT22;13725;51.170;4.442;2022-11-20T17:06:41;8.00;99.90
25923;DHT22;13725;51.170;4.442;2022-11-20T17:09:09;8.00;99.90
25923;DHT22;13725;51.170;4.442;2022-11-20T17:11:35;7.90;99.90
25923;DHT22;13725;51.170;4.442;2022-11-20T17:14:02;8.00;99.90
25923;DHT22;13725;51.170;4.442;2022-11-20T17:16:28;7.90;99.90
25923;DHT22;13725;51.170;4.442;2022-11-20T17:18:55;7.90;99.90
25923;DHT22;13725;51.170;4.442;2022-11-20T17:21:21;7.90;99.90
25923;DHT22;13725;51.170;4.442;2022-11-20T17:23:47;8.00;99.90
25923;DHT22;13725;51.170;4.442;2022-11-20T17:26:16;8.00;99.90
25923;DHT22;13725;51.170;4.442;2022-11-20T17:28:43;8.00;99.90
25923;DHT22;13725;51.170;4.442;2022-11-20T17:31:14;7.90;99.90
25923;DHT22;13725;51.170;4.442;2022-11-20T17:33:42;7.80;99.90
25923;DHT22;13725;51.170;4.442;2022-11-20T17:36:09;7.80;99.90
25923;DHT22;13725;51.170;4.442;2022-11-20T17:38:35;7.70;99.90
25923;DHT22;13725;51.170;4.442;2022-11-20T17:41:06;7.70;99.90